Time;durP1;ratioP1;P1;durP2;ratioP2;P2;SDS_P1;SDS_P2;PMS_P1;PMS_P2;Temp;Humidity;BMP_temperature;BMP_pressure;BME280_temperature;BME280_humidity;BME280_pressure;Samples;Min_cycle;Max_cycle;Signal;HPM_P1;HPM_P2
2021/03/04 00:05:58;;;;;;;1999.90;999.90;;;;;;;9.16;66.50;101563.34;15874145;28;20100;-65
2021/03/04 00:13:30;;;;;;;1999.90;999.90;;;;;;;9.03;66.96;101551.03;15857532;28;20484;-65
2021/03/04 00:21:03;;;;;;;1999.90;999.90;;;;;;;9.15;66.89;101562.53;15858228;28;20073;-64
2021/03/04 00:28:35;;;;;;;1999.90;999.90;;;;;;;8.84;68.19;101562.16;15876553;28;20078;-65
2021/03/04 00:36:07;;;;;;;1999.90;999.90;;;;;;;8.90;67.99;101543.44;15876109;28;20074;-65
2021/03/04 00:43:39;;;;;;;1999.90;999.90;;;;;;;8.91;67.51;101543.16;15875710;28;20093;-65
2021/03/04 00:51:10;;;;;;;1999.90;999.90;;;;;;;8.80;67.98;101526.91;15874732;28;20071;-63
2021/03/04 00:58:42;;;;;;;1999.90;999.90;;;;;;;8.75;68.04;101526.97;15856319;28;20038;-64
2021/03/04 01:06:14;;;;;;;1999.90;999.90;;;;;;;8.56;68.87;101519.47;15875213;28;20479;-65
2021/03/04 01:13:47;;;;;;;1999.90;999.90;;;;;;;8.48;69.36;101511.78;15872832;28;20134;-65
2021/03/04 01:21:18;;;;;;;1999.90;999.90;;;;;;;8.32;69.95;101500.00;15873692;28;20050;-63
2021/03/04 01:28:50;;;;;;;1999.90;999.90;;;;;;;8.30;69.24;101495.88;15807456;28;20039;-65
2021/03/04 01:36:22;;;;;;;1999.90;999.90;;;;;;;8.19;69.18;101481.28;15808760;28;20044;-63
2021/03/04 01:43:54;;;;;;;1999.90;999.90;;;;;;;8.25;69.24;101488.44;15807681;28;20127;-65
2021/03/04 01:51:26;;;;;;;1999.90;999.90;;;;;;;7.98;70.13;101479.91;15808892;28;20492;-64
2021/03/04 01:58:58;;;;;;;1999.90;999.90;;;;;;;7.94;70.48;101454.66;15807123;28;20374;-64
2021/03/04 02:06:36;;;;;;;1999.90;999.90;;;;;;;7.88;71.54;101446.66;15807309;28;20068;-64
2021/03/04 02:14:15;;;;;;;1999.90;999.90;;;;;;;7.94;71.08;101442.72;15805851;28;20040;-63
2021/03/04 02:22:00;;;;;;;1999.90;999.90;;;;;;;7.72;72.03;101434.94;15807412;28;20156;-62
2021/03/04 02:29:39;;;;;;;1999.90;999.90;;;;;;;7.74;72.09;101430.72;15869432;28;20051;-64
2021/03/04 02:37:12;;;;;;;1999.90;999.90;;;;;;;7.79;71.87;101429.81;15869053;28;20389;-64
2021/03/04 02:44:46;;;;;;;1999.90;999.90;;;;;;;7.69;71.74;101419.66;15868599;28;20031;-63
2021/03/04 02:52:19;;;;;;;1999.90;999.90;;;;;;;7.55;72.82;101412.34;15868242;28;20047;-64
2021/03/04 02:59:54;;;;;;;1999.90;999.90;;;;;;;7.54;73.06;101425.41;15868427;28;20044;-64
2021/03/04 03:07:26;;;;;;;1999.90;999.90;;;;;;;7.55;74.13;101434.56;15814639;28;20043;-64
2021/03/04 03:15:00;;;;;;;1999.90;999.90;;;;;;;7.58;74.22;101420.91;15847713;28;20028;-63
2021/03/04 03:22:31;;;;;;;;;;;;;;;7.77;72.89;101402.34;15870429;22;20048;-58
2021/03/04 03:30:30;;;;;;;1999.90;999.90;;;;;;;7.65;73.03;101417.78;15780263;28;19923;-55
2021/03/04 03:38:03;;;;;;;1999.90;999.90;;;;;;;7.65;72.87;101423.34;15743608;28;20044;-59
2021/03/04 03:45:38;;;;;;;1999.90;999.90;;;;;;;7.64;72.61;101422.53;15735716;28;20105;-56
2021/03/04 03:53:12;;;;;;;1999.90;999.90;;;;;;;7.51;71.74;101429.63;15735686;28;20500;-56
2021/03/04 04:00:46;;;;;;;1999.90;999.90;;;;;;;7.47;72.12;101419.38;15736142;28;20041;-52
2021/03/04 04:08:18;;;;;;;1999.90;999.90;;;;;;;7.25;72.16;101425.44;15735578;28;20044;-58
2021/03/04 04:15:50;;;;;;;1999.90;999.90;;;;;;;7.21;72.34;101416.91;15716919;28;20400;-51
2021/03/04 04:23:23;;;;;;;1999.90;999.90;;;;;;;6.92;72.08;101407.75;15735718;28;20063;-55
2021/03/04 04:30:55;;;;;;;1999.90;999.90;;;;;;;6.63;72.40;101410.47;15735148;28;20084;-55
2021/03/04 04:38:28;;;;;;;1999.90;999.90;;;;;;;6.45;72.53;101417.53;15715761;28;20044;-55
2021/03/04 04:46:00;;;;;;;1999.90;999.90;;;;;;;6.41;72.43;101423.97;15733275;28;20044;-53
2021/03/04 04:53:31;;;;;;;1999.90;999.90;;;;;;;6.24;72.40;101435.44;15725397;28;20037;-58
2021/03/04 05:01:03;;;;;;;1999.90;999.90;;;;;;;5.98;71.73;101432.81;15726802;28;20129;-52
2021/03/04 05:08:35;;;;;;;1999.90;999.90;;;;;;;5.84;72.22;101406.00;15743149;28;20067;-51
2021/03/04 05:16:07;;;;;;;1999.90;999.90;;;;;;;5.80;72.57;101412.09;15742735;28;20044;-56
2021/03/04 05:23:39;;;;;;;1999.90;999.90;;;;;;;5.69;72.43;101395.81;15742987;28;20040;-54
2021/03/04 05:31:11;;;;;;;1999.90;999.90;;;;;;;5.67;73.24;101376.72;15742453;28;20079;-53
2021/03/04 05:38:43;;;;;;;1999.90;999.90;;;;;;;5.64;72.76;101385.59;15723690;28;20052;-53
2021/03/04 05:46:21;;;;;;;1999.90;999.90;;;;;;;5.87;72.77;101381.31;15723336;28;20109;-54
2021/03/04 05:53:56;;;;;;;1999.90;999.90;;;;;;;6.13;71.62;101381.19;15741351;28;20444;-52
2021/03/04 06:01:29;;;;;;;1999.90;999.90;;;;;;;6.32;70.89;101368.31;15740911;28;20055;-55
2021/03/04 06:09:01;;;;;;;1999.90;999.90;;;;;;;6.33;71.16;101383.81;15739449;28;20048;-57
2021/03/04 06:16:34;;;;;;;1999.90;999.90;;;;;;;6.31;71.05;101386.06;15740940;28;20190;-54
2021/03/04 06:24:13;;;;;;;1999.90;999.90;;;;;;;6.35;71.41;101387.13;15739241;28;20049;-55
2021/03/04 06:31:47;;;;;;;1999.90;999.90;;;;;;;6.27;70.84;101385.81;15737296;28;20045;-52
2021/03/04 06:39:18;;;;;;;;;;;;;;;5.95;72.35;101385.47;15739937;28;20110;-53
2021/03/04 06:46:50;;;;;;;1999.90;999.90;;;;;;;6.23;71.61;101383.91;15739174;28;19977;-58
2021/03/04 06:54:22;;;;;;;1999.90;999.90;;;;;;;6.11;70.81;101389.78;15738296;28;20060;-53
2021/03/04 07:01:54;;;;;;;1999.90;999.90;;;;;;;5.91;71.54;101396.28;15720261;28;20049;-51
2021/03/04 07:09:33;;;;;;;1999.90;999.90;;;;;;;6.22;71.30;101391.38;15719739;28;20477;-51
2021/03/04 07:17:06;;;;;;;1999.90;999.90;;;;;;;6.20;70.00;101393.63;15737601;28;20045;-56
2021/03/04 07:24:39;;;;;;;1999.90;999.90;;;;;;;6.19;70.55;101391.13;15736675;28;20048;-51
2021/03/04 07:32:23;;;;;;;1999.90;999.90;;;;;;;6.69;69.35;101383.56;15719254;28;20405;-54
2021/03/04 07:39:59;;;;;;;1999.90;999.90;;;;;;;6.39;68.48;101391.00;15736186;28;20072;-52
2021/03/04 07:47:31;;;;;;;1999.90;999.90;;;;;;;6.53;68.50;101386.44;15717264;28;20242;-51
2021/03/04 07:55:10;;;;;;;1999.90;999.90;;;;;;;6.34;70.00;101382.69;15717092;28;20048;-52
2021/03/04 08:02:44;;;;;;;1999.90;999.90;;;;;;;6.42;69.70;101384.03;15734308;28;20040;-54
2021/03/04 08:10:16;;;;;;;;;;;;;;;6.59;69.17;101390.00;15735805;28;20060;-52
2021/03/04 08:17:49;;;;;;;1999.90;999.90;;;;;;;6.79;68.54;101375.13;15734081;28;19979;-56
2021/03/04 08:25:23;;;;;;;1999.90;999.90;;;;;;;6.58;69.04;101380.03;15723959;28;20425;-52
2021/03/04 08:32:56;;;;;;;1999.90;999.90;;;;;;;6.81;67.71;101372.91;15746560;28;20049;-56
2021/03/04 08:40:28;;;;;;;1999.90;999.90;;;;;;;6.63;69.08;101364.16;15745954;28;20094;-56
2021/03/04 08:48:05;;;;;;;1999.90;999.90;;;;;;;6.72;68.12;101358.00;15746320;28;20053;-54
2021/03/04 08:55:44;;;;;;;1999.90;999.90;;;;;;;6.31;67.82;101352.78;15745311;28;20052;-54
2021/03/04 09:03:17;;;;;;;1999.90;999.90;;;;;;;6.42;67.56;101348.81;15726016;28;20060;-53
2021/03/04 09:10:50;;;;;;;1999.90;999.90;;;;;;;6.81;66.42;101343.19;15725936;28;20064;-55
2021/03/04 09:18:24;;;;;;;1999.90;999.90;;;;;;;6.66;66.57;101351.66;15743381;28;20040;-53
2021/03/04 09:25:57;;;;;;;1999.90;999.90;;;;;;;6.51;67.08;101349.84;15806549;22;20051;-71
2021/03/04 09:33:30;;;;;;;1999.90;999.90;;;;;;;6.47;67.61;101346.03;15833906;28;20040;-71
2021/03/04 09:41:10;;;;;;;1999.90;999.90;;;;;;;6.77;66.49;101335.75;15838861;22;20048;-67
2021/03/04 09:48:43;;;;;;;1999.90;999.90;;;;;;;6.77;66.11;101342.13;15760269;28;20378;-66
2021/03/04 09:56:21;;;;;;;1999.90;999.90;;;;;;;6.61;65.90;101340.63;15747934;28;20079;-66
2021/03/04 10:04:00;;;;;;;1999.90;999.90;;;;;;;7.02;65.08;101351.31;15747706;28;20056;-67
2021/03/04 10:11:33;;;;;;;1999.90;999.90;;;;;;;7.09;64.91;101360.97;15746510;28;20110;-65
2021/03/04 10:19:07;;;;;;;1999.90;999.90;;;;;;;6.80;65.94;101360.16;15761428;28;20048;-66
2021/03/04 10:26:40;;;;;;;1999.90;999.90;;;;;;;6.98;65.94;101348.28;15766388;28;20175;-68
2021/03/04 10:34:13;;;;;;;1999.90;999.90;;;;;;;6.98;65.78;101342.75;15782544;28;20063;-65
2021/03/04 10:41:45;;;;;;;1999.90;999.90;;;;;;;6.81;66.58;101340.44;15762495;28;20067;-64
2021/03/04 10:49:17;;;;;;;1999.90;999.90;;;;;;;6.93;65.42;101343.63;15715937;28;20572;-64
2021/03/04 10:56:48;;;;;;;1999.90;999.90;;;;;;;7.14;64.60;101344.25;15781981;28;20260;-66
2021/03/04 11:04:20;;;;;;;1999.90;999.90;;;;;;;7.39;63.87;101353.38;15768050;28;20048;-65
2021/03/04 11:11:52;;;;;;;1999.90;999.90;;;;;;;7.01;65.14;101347.72;15788084;28;20688;-65
2021/03/04 11:19:24;;;;;;;1999.90;999.90;;;;;;;6.74;66.57;101351.03;15780511;28;20394;-66
2021/03/04 11:26:56;;;;;;;1999.90;999.90;;;;;;;6.86;65.26;101345.91;15750425;28;20059;-65
2021/03/04 11:34:28;;;;;;;1999.90;999.90;;;;;;;6.84;64.25;101345.38;15765742;28;20577;-64
2021/03/04 11:42:00;;;;;;;1999.90;999.90;;;;;;;6.82;63.88;101339.31;15749363;28;20048;-65
2021/03/04 11:49:32;;;;;;;1999.90;999.90;;;;;;;6.77;63.90;101325.47;15773569;28;20047;-65
2021/03/04 11:57:03;;;;;;;1999.90;999.90;;;;;;;6.74;63.46;101319.69;15756944;28;20044;-65
2021/03/04 12:04:36;;;;;;;1999.90;999.90;;;;;;;6.43;64.70;101311.66;15778286;28;20101;-65
2021/03/04 12:12:08;;;;;;;1999.90;999.90;;;;;;;6.76;63.83;101307.19;15768288;28;20529;-65
2021/03/04 12:19:40;;;;;;;1999.90;999.90;;;;;;;6.18;64.84;101307.16;15775126;28;20103;-64
2021/03/04 12:27:12;;;;;;;1999.90;999.90;;;;;;;5.72;67.31;101293.59;15753491;28;20505;-64
2021/03/04 12:34:44;;;;;;;1999.90;999.90;;;;;;;6.01;66.02;101304.78;15784026;28;20048;-64
2021/03/04 12:42:16;;;;;;;1999.90;999.90;;;;;;;6.30;64.48;101296.53;15759969;28;20060;-65
2021/03/04 12:49:48;;;;;;;1999.90;999.90;;;;;;;6.37;65.17;101301.75;15778971;28;20048;-65
2021/03/04 12:57:19;;;;;;;1999.90;999.90;;;;;;;6.44;65.03;101298.63;15771857;28;20044;-64
2021/03/04 13:04:52;;;;;;;1999.90;999.90;;;;;;;6.45;64.83;101300.28;15774598;28;20056;-65
2021/03/04 13:12:23;;;;;;;1999.90;999.90;;;;;;;6.13;64.76;101296.13;15756459;28;20044;-65
2021/03/04 13:19:56;;;;;;;1999.90;999.90;;;;;;;6.22;64.64;101291.59;15753812;28;20097;-65
2021/03/04 13:27:28;;;;;;;1999.90;999.90;;;;;;;5.88;65.29;101287.97;15756584;28;20036;-65
2021/03/04 13:35:00;;;;;;;1999.90;999.90;;;;;;;5.70;65.98;101286.69;15777095;28;20095;-66
2021/03/04 13:42:32;;;;;;;1999.90;999.90;;;;;;;6.10;64.80;101291.16;15767344;28;20056;-66
2021/03/04 13:50:06;;;;;;;1999.90;999.90;;;;;;;6.28;64.24;101290.47;15801546;28;20560;-66
2021/03/04 13:57:37;;;;;;;;;;;;;;;6.04;64.34;101284.00;15772765;28;20086;-65
2021/03/04 14:05:10;;;;;;;1999.90;999.90;;;;;;;6.26;64.39;101292.69;15780874;28;20375;-67
2021/03/04 14:12:42;;;;;;;1999.90;999.90;;;;;;;6.39;64.02;101288.44;15770474;28;20071;-63
2021/03/04 14:20:15;;;;;;;1999.90;999.90;;;;;;;6.47;63.60;101290.56;15777722;28;20060;-63
2021/03/04 14:27:47;;;;;;;1999.90;999.90;;;;;;;6.67;63.16;101284.00;15815661;28;20043;-65
2021/03/04 14:35:19;;;;;;;1999.90;999.90;;;;;;;6.76;63.57;101267.53;15830373;28;20041;-64
2021/03/04 14:42:51;;;;;;;1999.90;999.90;;;;;;;6.64;64.25;101259.59;15769485;28;20139;-62
2021/03/04 14:50:23;;;;;;;1999.90;999.90;;;;;;;6.70;64.23;101261.22;15749711;28;20041;-62
2021/03/04 14:57:55;;;;;;;1999.90;999.90;;;;;;;6.60;63.89;101255.78;15745398;28;20060;-64
2021/03/04 15:05:28;;;;;;;1999.90;999.90;;;;;;;6.73;63.72;101240.38;15727756;28;20051;-64
2021/03/04 15:12:59;;;;;;;1999.90;999.90;;;;;;;6.60;64.32;101245.50;15746462;28;20048;-65
2021/03/04 15:20:31;;;;;;;1999.90;999.90;;;;;;;6.55;64.51;101234.47;15744216;28;20052;-63
2021/03/04 15:28:04;;;;;;;1999.90;999.90;;;;;;;6.60;64.71;101233.59;15807242;22;20051;-73
2021/03/04 15:35:40;;;;;;;1999.90;999.90;;;;;;;6.57;65.30;101226.69;15801005;28;20383;-71
2021/03/04 15:43:12;;;;;;;1999.90;999.90;;;;;;;6.34;65.53;101235.78;15784530;28;20052;-72
2021/03/04 15:50:49;;;;;;;1999.90;999.90;;;;;;;6.48;64.57;101225.69;15744490;28;20037;-71
2021/03/04 15:58:22;;;;;;;1999.90;999.90;;;;;;;6.45;64.21;101223.47;15755989;28;20052;-70
2021/03/04 16:06:02;;;;;;;1999.90;999.90;;;;;;;6.46;64.80;101210.44;15760581;28;20057;-70
2021/03/04 16:13:34;;;;;;;1999.90;999.90;;;;;;;6.04;66.05;101206.41;15789786;28;20059;-69
2021/03/04 16:21:14;;;;;;;1999.90;999.90;;;;;;;6.35;65.19;101210.53;15748154;28;20041;-70
2021/03/04 16:28:56;;;;;;;1999.90;999.90;;;;;;;6.47;64.99;101207.41;15740909;28;20040;-70
2021/03/04 16:36:28;;;;;;;1999.90;999.90;;;;;;;6.52;64.82;101203.72;15740716;28;20108;-70
2021/03/04 16:44:01;;;;;;;1999.90;999.90;;;;;;;6.57;64.75;101204.50;15786514;28;20507;-71
2021/03/04 16:51:36;;;;;;;1999.90;999.90;;;;;;;6.52;64.44;101206.50;15775838;28;20139;-70
2021/03/04 16:59:08;;;;;;;1999.90;999.90;;;;;;;6.62;64.58;101206.38;15792103;28;20510;-71
2021/03/04 17:06:43;;;;;;;1999.90;999.90;;;;;;;6.32;65.11;101218.63;15784563;28;20112;-72
2021/03/04 17:14:16;;;;;;;1999.90;999.90;;;;;;;6.35;65.45;101218.84;15769829;28;20119;-72
2021/03/04 17:21:49;;;;;;;1999.90;999.90;;;;;;;6.18;65.45;101215.72;15765374;28;20100;-70
2021/03/04 17:29:24;;;;;;;1999.90;999.90;;;;;;;6.50;64.60;101225.38;15789478;28;20517;-69
2021/03/04 17:36:57;;;;;;;1999.90;999.90;;;;;;;6.37;65.44;101229.69;15791851;28;20067;-69
2021/03/04 17:44:40;;;;;;;1999.90;999.90;;;;;;;6.44;65.51;101243.19;15784520;28;20370;-71
2021/03/04 17:52:13;;;;;;;1999.90;999.90;;;;;;;6.51;65.61;101243.66;15744214;28;20064;-71
2021/03/04 17:59:45;;;;;;;1999.90;999.90;;;;;;;6.49;65.06;101246.75;15763058;28;20048;-72
2021/03/04 18:07:17;;;;;;;1999.90;999.90;;;;;;;6.45;64.87;101250.38;15789075;28;20062;-73
2021/03/04 18:14:53;;;;;;;1999.90;999.90;;;;;;;6.49;65.17;101246.75;15733790;28;20056;-72
2021/03/04 18:22:25;;;;;;;1999.90;999.90;;;;;;;6.41;65.55;101252.09;15719634;28;20052;-72
2021/03/04 18:29:57;;;;;;;1999.90;999.90;;;;;;;6.51;65.21;101247.28;15774152;28;20541;-72
2021/03/04 18:37:30;;;;;;;1999.90;999.90;;;;;;;6.46;65.71;101250.09;15748639;28;20127;-70
2021/03/04 18:45:03;;;;;;;;;;;;;;;6.36;66.91;101247.44;15779584;28;20383;-71
2021/03/04 18:52:37;;;;;;;1999.90;999.90;;;;;;;6.16;66.54;101248.44;15795544;28;19924;-68
2021/03/04 19:00:11;;;;;;;1999.90;999.90;;;;;;;6.42;67.03;101243.47;15761280;28;20510;-71
2021/03/04 19:07:44;;;;;;;1999.90;999.90;;;;;;;6.42;67.52;101259.28;15777572;28;20382;-70
2021/03/04 19:15:16;;;;;;;1999.90;999.90;;;;;;;6.38;68.11;101249.91;15776205;28;20126;-72
2021/03/04 19:22:49;;;;;;;1999.90;999.90;;;;;;;6.09;69.54;101259.03;15764659;28;20512;-71
2021/03/04 19:30:21;;;;;;;1999.90;999.90;;;;;;;6.13;70.39;101253.72;15761120;28;20074;-70
2021/03/04 19:37:53;;;;;;;1999.90;999.90;;;;;;;5.88;71.11;101265.81;15813832;28;20432;-70
2021/03/04 19:45:25;;;;;;;1999.90;999.90;;;;;;;6.01;71.61;101267.94;15798607;28;20040;-71
2021/03/04 19:52:58;;;;;;;1999.90;999.90;;;;;;;5.89;72.25;101273.84;15799418;28;20520;-70
2021/03/04 20:00:30;;;;;;;1999.90;999.90;;;;;;;6.07;71.30;101275.13;15778843;28;20125;-71
2021/03/04 20:08:04;;;;;;;1999.90;999.90;;;;;;;6.09;71.41;101267.34;15745582;28;20075;-71
2021/03/04 20:15:38;;;;;;;1999.90;999.90;;;;;;;6.13;72.50;101271.16;15742050;28;20067;-71
2021/03/04 20:23:10;;;;;;;1999.90;999.90;;;;;;;6.11;72.15;101278.97;15779915;28;20151;-70
2021/03/04 20:30:42;;;;;;;1999.90;999.90;;;;;;;5.84;72.65;101278.59;15809542;28;20040;-72
2021/03/04 20:38:15;;;;;;;1999.90;999.90;;;;;;;6.04;72.79;101295.06;15809528;28;20044;-70
2021/03/04 20:45:46;;;;;;;1999.90;999.90;;;;;;;5.66;74.11;101299.47;15787609;28;20116;-71
2021/03/04 20:53:19;;;;;;;1999.90;999.90;;;;;;;5.97;73.85;101311.22;15809140;28;20051;-73
2021/03/04 21:00:51;;;;;;;1999.90;999.90;;;;;;;5.43;74.78;101315.66;15790242;28;20039;-71
2021/03/04 21:08:24;;;;;;;1999.90;999.90;;;;;;;5.62;74.16;101315.81;15807068;28;20538;-72
2021/03/04 21:15:55;;;;;;;1999.90;999.90;;;;;;;5.16;77.42;101323.50;15806791;28;20122;-71
2021/03/04 21:23:27;;;;;;;1999.90;999.90;;;;;;;4.94;77.26;101329.38;15805248;28;20040;-70
2021/03/04 21:31:01;;;;;;;1999.90;999.90;;;;;;;4.80;77.91;101331.09;15804384;28;20097;-72
2021/03/04 21:38:34;;;;;;;1999.90;999.90;;;;;;;4.86;77.78;101335.47;15805122;28;20131;-71
2021/03/04 21:46:06;;;;;;;1999.90;999.90;;;;;;;5.15;76.69;101342.03;15775629;28;20040;-72
2021/03/04 21:53:38;;;;;;;1999.90;999.90;;;;;;;5.54;75.48;101346.06;15807625;28;20528;-69
2021/03/04 22:01:11;;;;;;;1999.90;999.90;;;;;;;5.50;75.37;101352.13;15805614;28;20044;-70
2021/03/04 22:08:44;;;;;;;1999.90;999.90;;;;;;;5.30;76.61;101351.38;15805269;28;20062;-71
2021/03/04 22:16:16;;;;;;;1999.90;999.90;;;;;;;5.42;75.87;101361.06;15786466;28;20032;-71
2021/03/04 22:23:49;;;;;;;1999.90;999.90;;;;;;;5.25;75.40;101356.97;15804005;28;20048;-71
2021/03/04 22:31:23;;;;;;;1999.90;999.90;;;;;;;5.12;75.26;101369.47;15802581;28;20059;-71
2021/03/04 22:38:56;;;;;;;1999.90;999.90;;;;;;;4.91;75.37;101363.97;15802643;28;20044;-71
2021/03/04 22:46:28;;;;;;;1999.90;999.90;;;;;;;4.81;76.48;101366.75;15803232;28;20095;-71
2021/03/04 22:54:00;;;;;;;1999.90;999.90;;;;;;;4.86;76.64;101374.19;15784865;28;20457;-71
2021/03/04 23:01:32;;;;;;;1999.90;999.90;;;;;;;4.56;76.76;101375.88;15804237;28;20039;-72
2021/03/04 23:09:06;;;;;;;1999.90;999.90;;;;;;;4.50;77.43;101382.53;15792599;28;20438;-71
2021/03/04 23:16:37;;;;;;;;;;;;;;;4.95;75.26;101389.13;15789704;28;20076;-73
2021/03/04 23:24:12;;;;;;;1999.90;999.90;;;;;;;4.72;76.68;101396.06;15802436;28;19920;-70
2021/03/04 23:31:43;;;;;;;1999.90;999.90;;;;;;;4.59;76.35;101407.69;15781686;28;20174;-71
2021/03/04 23:39:17;;;;;;;1999.90;999.90;;;;;;;4.86;76.35;101407.38;15798765;28;20083;-70
2021/03/04 23:46:48;;;;;;;1999.90;999.90;;;;;;;4.70;76.01;101403.81;15798764;28;20065;-71
2021/03/04 23:54:21;;;;;;;1999.90;999.90;;;;;;;5.14;74.86;101411.50;15798181;28;20138;-71
